Latest Coastal Weather Observations for Friendly Beaches

IDT60701

Issued at 3:02 am EDT Friday 6 March 2015 (issued every 10 minutes, with the page automatically refreshed every 10 minutes)

About coastal observations | Map of coastal stations | Coastal observations for TAS | Marine services | Other Formats
Station Details ID: 092114 Name: FRIENDLY BEACHES Lat: -42.00 Lon: 148.28 Height: 55.0 m
Data from the previous 72 hours. | See also: Recent months at Friendly Beaches
Date/Time
EDT
Temp

°C
Wind Pressure Rain
since 9am
mm
Weather Cloud Vis
km
Sea
Height
m
Swell
Dir
 
Speed
knots
Gust
knots
hPa Trend Height
m
Period
s
Dir
06/03:00am 14.6 WSW 6 10 992.1 - 0.0 - - - - - - -
06/02:30am 13.9 WNW 4 10 992.1 - 0.0 - - - - - - -
06/02:00am 13.8 NW 5 10 992.5 - 0.0 - - - - - - -
06/01:30am 13.5 WNW 8 14 993.1 - 0.0 - - - - - - -
06/01:00am 13.1 WNW 11 17 993.7 - 0.0 - - - - - - -
06/12:30am 13.1 WNW 12 21 994.4 - 0.0 - - - - - - -
 
Date/Time
EDT
Temp

°C
Wind Pressure Rain
since 9am
mm
Weather Cloud Vis
km
Sea
Height
m
Swell
Dir
 
Speed
knots
Gust
knots
hPa Trend Height
m
Period
s
Dir
05/11:30pm 12.8 WNW 13 25 996.0 - 0.0 - - - - - - -
05/11:00pm 12.8 NW 13 23 997.0 - 0.0 - - - - - - -
05/10:30pm 12.9 WNW 10 17 997.9 - 0.0 - - - - - - -
05/10:00pm 12.8 NW 9 16 998.7 - 0.0 - - - - - - -
05/09:30pm 13.1 WNW 10 20 999.4 - 0.0 - - - - - - -
05/09:00pm 13.4 NW 11 19 999.8 - 0.0 - - - - - - -
05/08:30pm 13.8 WNW 11 23 1000.2 - 0.0 - - - - - - -
05/08:00pm 14.1 WNW 10 17 1000.3 - 0.0 - - - - - - -
05/07:30pm 14.5 WNW 13 26 1000.7 - 0.0 - - - - - - -
05/07:19pm 14.8 WNW 15 25 1000.9 - 0.0 - - - - - - -
05/07:00pm 15.1 W 11 21 1001.2 - 0.0 - - - - - - -
05/06:30pm 15.4 W 9 15 1001.8 - 0.0 - - - - - - -
05/06:00pm 15.8 W 13 22 1002.2 - 0.0 - - - - - - -
05/05:30pm 16.8 W 10 19 1002.4 - 0.0 - - - - - - -
05/05:00pm 17.4 WSW 11 19 1002.5 - 0.0 - - - - - - -
05/04:30pm 17.6 WSW 13 23 1002.9 - 0.0 - - - - - - -
05/04:00pm 17.0 WSW 13 23 1003.3 - 0.0 - - - - - - -
05/03:30pm 17.2 WSW 14 23 1003.8 - 0.0 - - - - - - -
05/03:00pm 17.2 SW 15 28 1004.4 - 0.0 - - - - - - -
05/02:38pm 17.1 WSW 16 26 1004.7 - 0.0 - - - - - - -
05/02:30pm 16.6 WSW 17 25 1004.8 - 0.0 - - - - - - -
05/02:16pm 16.9 WSW 15 26 1004.9 - 0.0 - - - - - - -
05/02:00pm 16.6 WSW 15 24 1004.9 - 0.0 - - - - - - -
05/01:31pm 16.4 WSW 15 26 1005.2 - 0.0 - - - - - - -
05/01:30pm 16.7 WSW 14 26 1005.2 - 0.0 - - - - - - -
05/01:00pm 16.0 WSW 16 27 1005.5 - 0.0 - - - - - - -
05/12:30pm 15.6 SW 17 28 1005.5 - 0.0 - - - - - - -
05/12:13pm 14.7 WSW 15 30 1005.5 - 0.0 - - - - - - -
05/12:00pm 15.6 SW 14 26 1005.4 - 0.0 - - - - - - -
05/11:30am 13.9 WSW 18 29 1005.6 - 0.0 - - - - - - -
05/11:00am 13.9 SW 15 29 1005.4 - 0.0 - - - - - - -
05/10:30am 13.1 SW 16 29 1005.2 - 0.0 - - - - - - -
05/10:00am 12.7 SW 15 26 1004.7 - 0.0 - - - - - - -
05/09:30am 12.1 WSW 16 29 1004.3 - 0.0 - - - - - - -
05/09:00am 11.4 WSW 16 26 1003.4 - 0.0 - - - - - - -
05/08:30am 10.5 WSW 16 31 1002.5 - 0.0 - - - - - - -
05/08:00am 10.1 WSW 16 28 1001.5 - 0.0 - - - - - - -
05/07:32am 9.7 WSW 16 27 1000.8 - 0.0 - - - - - - -
05/07:30am 9.7 WSW 16 26 1000.6 - 0.0 - - - - - - -
05/07:03am 10.1 SW 15 31 1000.0 - 0.0 - - - - - - -
05/07:00am 10.1 SW 14 25 999.9 - 0.0 - - - - - - -
05/06:30am 10.4 SW 13 22 998.9 - 0.0 - - - - - - -
05/06:00am 10.5 WSW 10 17 998.4 - 0.0 - - - - - - -
05/05:42am 10.8 WSW 15 26 998.1 - 0.0 - - - - - - -
05/05:30am 11.2 WSW 15 25 997.9 - 0.0 - - - - - - -
05/05:00am 11.7 WSW 13 20 997.4 - 0.0 - - - - - - -
05/04:30am 11.7 WSW 9 15 997.2 - 0.0 - - - - - - -
05/04:00am 12.2 WSW 11 19 996.5 - 0.0 - - - - - - -
05/03:30am 11.4 SW 10 18 995.7 - 0.0 - - - - - - -
05/03:08am 12.1 WSW 15 28 995.2 - 0.0 - - - - - - -
05/03:00am 13.3 WSW 13 26 995.0 - 0.0 - - - - - - -
05/02:50am 14.4 WSW 11 24 994.9 - 0.0 - - - - - - -
05/02:30am 14.1 W 6 12 995.0 - 0.0 - - - - - - -
05/02:00am 14.5 W 8 16 995.3 - 0.0 - - - - - - -
05/01:30am 14.8 WNW 10 20 995.4 - 0.0 - - - - - - -
05/01:00am 15.0 WNW 8 17 995.2 - 0.0 - - - - - - -
05/12:30am 15.2 WNW 8 15 995.5 - 0.0 - - - - - - -
05/12:00am 15.5 WNW 10 17 995.8 - 0.0 - - - - - - -
 
Date/Time
EDT
Temp

°C
Wind Pressure Rain
since 9am
mm
Weather Cloud Vis
km
Sea
Height
m
Swell
Dir
 
Speed
knots
Gust
knots
hPa Trend Height
m
Period
s
Dir
04/11:30pm 15.5 WNW 10 18 996.5 - 0.0 - - - - - - -
04/11:00pm 15.9 NW 10 21 996.9 - 0.0 - - - - - - -
04/10:30pm 16.6 WNW 10 21 997.5 - 0.0 - - - - - - -
04/10:00pm 16.9 WNW 10 20 997.9 - 0.0 - - - - - - -
04/09:30pm 17.4 NW 11 20 998.0 - 0.0 - - - - - - -
04/09:01pm 18.2 NW 15 26 998.1 - 0.0 - - - - - - -
04/09:00pm 18.2 NW 14 25 998.1 - 0.0 - - - - - - -
04/08:30pm 18.8 WNW 16 27 998.1 - 0.0 - - - - - - -
04/08:25pm 18.8 WNW 15 28 998.3 - 0.0 - - - - - - -
04/08:00pm 19.1 NW 13 21 998.0 - 0.0 - - - - - - -
04/07:30pm 19.8 WNW 11 23 998.3 - 0.0 - - - - - - -
04/07:00pm 20.3 NW 12 21 998.7 - 0.0 - - - - - - -
04/06:30pm 21.1 NW 11 23 998.7 - 0.0 - - - - - - -
04/06:00pm 22.3 NW 12 24 998.9 - 0.0 - - - - - - -
04/05:30pm 22.8 WNW 16 26 999.0 - 0.0 - - - - - - -
04/05:06pm 22.9 NW 15 25 999.2 - 0.0 - - - - - - -
04/05:00pm 23.4 WNW 14 21 999.4 - 0.0 - - - - - - -
04/04:30pm 24.2 NW 12 22 999.5 - 0.0 - - - - - - -
04/04:00pm 24.1 NW 11 22 999.8 - 0.0 - - - - - - -
04/03:30pm 23.1 WNW 10 20 1000.2 - 0.0 - - - - - - -
04/03:00pm 22.6 NW 11 19 1000.6 - 0.0 - - - - - - -
04/02:30pm 22.0 NW 13 23 1001.1 - 0.0 - - - - - - -
04/02:13pm 22.2 NW 15 26 1001.4 - 0.0 - - - - - - -
04/02:00pm 23.2 NW 13 22 1001.5 - 0.0 - - - - - - -
04/01:31pm 22.8 NW 15 25 1001.7 - 0.0 - - - - - - -
04/01:30pm 22.9 NW 14 25 1001.7 - 0.0 - - - - - - -
04/01:04pm 22.3 WNW 15 27 1002.2 - 0.0 - - - - - - -
04/01:00pm 22.6 WNW 13 27 1002.2 - 0.0 - - - - - - -
04/12:30pm 21.9 NW 14 22 1003.1 - 0.0 - - - - - - -
04/12:00pm 21.5 WNW 13 27 1003.6 - 0.0 - - - - - - -
04/11:30am 20.9 WNW 12 20 1004.2 - 0.0 - - - - - - -
04/11:00am 19.9 WNW 12 21 1004.4 - 0.0 - - - - - - -
04/10:30am 19.1 NW 14 26 1004.8 - 0.0 - - - - - - -
04/10:00am 18.5 NW 12 19 1005.0 - 0.0 - - - - - - -
04/09:30am 17.5 WNW 12 19 1005.5 - 0.0 - - - - - - -
04/09:00am 16.9 NW 11 22 1005.8 - 0.0 - - - - - - -
04/08:30am 15.9 NW 10 22 1005.4 - 0.0 - - - - - - -
04/08:00am 15.1 NW 11 21 1005.9 - 0.0 - - - - - - -
04/07:30am 14.2 NW 8 17 1006.1 - 0.0 - - - - - - -
04/07:00am 13.8 NW 9 15 1006.1 - 0.0 - - - - - - -
04/06:35am 13.8 WNW 15 26 1005.8 - 0.0 - - - - - - -
04/06:30am 13.9 WNW 16 25 1005.8 - 0.0 - - - - - - -
04/06:03am 14.2 WNW 16 27 1005.6 - 0.0 - - - - - - -
04/06:00am 14.1 WNW 17 26 1005.5 - 0.0 - - - - - - -
04/05:33am 14.0 WNW 15 25 1005.3 - 0.0 - - - - - - -
04/05:30am 14.0 WNW 14 25 1005.4 - 0.0 - - - - - - -
04/05:16am 14.0 WNW 15 28 1005.5 - 0.0 - - - - - - -
04/05:00am 13.8 WNW 11 20 1005.6 - 0.0 - - - - - - -
04/04:36am 13.9 WNW 15 25 1005.7 - 0.0 - - - - - - -
04/04:30am 13.9 WNW 13 23 1005.8 - 0.0 - - - - - - -
04/04:07am 13.8 WNW 15 25 1006.0 - 0.0 - - - - - - -
04/04:00am 13.9 WNW 14 23 1006.3 - 0.0 - - - - - - -
04/03:38am 13.9 WNW 16 29 1006.6 - 0.0 - - - - - - -
04/03:30am 13.8 WNW 14 23 1006.8 - 0.0 - - - - - - -
04/03:17am 13.8 WNW 15 25 1006.9 - 0.0 - - - - - - -
04/03:00am 13.9 WNW 14 24 1007.1 - 0.0 - - - - - - -
04/02:46am 13.9 WNW 15 25 1007.3 - 0.0 - - - - - - -
04/02:30am 14.0 WNW 16 24 1007.3 - 0.0 - - - - - - -
04/02:23am 13.9 WNW 15 26 1007.4 - 0.0 - - - - - - -
04/02:00am 13.4 WNW 10 20 1008.2 - 0.0 - - - - - - -
04/01:30am 13.6 WNW 12 19 1008.6 - 0.0 - - - - - - -
04/01:00am 13.6 WNW 12 20 1009.0 - 0.0 - - - - - - -
04/12:30am 14.1 WNW 13 22 1009.1 - 0.0 - - - - - - -
04/12:00am 14.7 WNW 12 19 1009.3 - 0.0 - - - - - - -
 
Date/Time
EDT
Temp

°C
Wind Pressure Rain
since 9am
mm
Weather Cloud Vis
km
Sea
Height
m
Swell
Dir
 
Speed
knots
Gust
knots
hPa Trend Height
m
Period
s
Dir
03/11:30pm 15.4 W 12 22 1009.5 - 0.0 - - - - - - -
03/11:00pm 15.4 WNW 10 18 1009.6 - 0.0 - - - - - - -
03/10:30pm 14.9 W 6 10 1009.7 - 0.0 - - - - - - -
03/10:00pm 15.2 W 6 10 1009.7 - 0.0 - - - - - - -
03/09:30pm 15.1 WNW 5 8 1009.9 - 0.0 - - - - - - -
03/09:00pm 14.4 NW 4 5 1009.9 - 0.0 - - - - - - -
03/08:30pm 14.9 S 4 5 1009.6 - 0.0 - - - - - - -
03/08:00pm 15.5 SE 5 7 1009.7 - 0.0 - - - - - - -
03/07:30pm 16.1 E 7 10 1010.0 - 0.0 - - - - - - -
03/07:00pm 16.8 ENE 8 11 1010.3 - 0.0 - - - - - - -
03/06:30pm 17.9 ENE 10 14 1010.7 - 0.0 - - - - - - -
03/06:00pm 18.2 ENE 8 13 1011.0 - 0.0 - - - - - - -
03/05:30pm 19.0 ENE 10 16 1011.3 - 0.0 - - - - - - -
03/05:00pm 18.1 NE 11 15 1011.5 - 0.0 - - - - - - -
03/04:30pm 19.5 NE 11 16 1011.7 - 0.0 - - - - - - -
03/04:00pm 20.5 ENE 11 16 1012.0 - 0.0 - - - - - - -
03/03:30pm 20.5 ENE 11 15 1012.4 - 0.0 - - - - - - -
03/03:00pm 19.4 ENE 8 12 1012.8 - 0.0 - - - - - - -
03/02:30pm 20.4 ENE 8 11 1013.1 - 0.0 - - - - - - -
03/02:00pm 18.4 E 7 10 1013.2 - 0.0 - - - - - - -
03/01:30pm 18.5 E 8 11 1013.4 - 0.0 - - - - - - -
03/01:00pm 20.3 SE 11 15 1013.5 - 0.0 - - - - - - -
03/12:30pm 21.2 SE 9 13 1013.6 - 0.0 - - - - - - -
03/12:00pm 20.7 SE 9 11 1014.1 - 0.0 - - - - - - -
03/11:30am 18.6 S 6 11 1014.3 - 0.0 - - - - - - -
03/11:00am 19.3 WSW 6 10 1014.6 - 0.0 - - - - - - -
03/10:30am 18.2 SW 5 9 1014.5 - 0.0 - - - - - - -
03/10:00am 16.5 SW 4 9 1014.3 - 0.0 - - - - - - -
03/09:30am 16.1 WSW 4 7 1014.3 - 0.0 - - - - - - -
03/09:00am 14.4 SW 3 6 1014.4 - 0.0 - - - - - - -
03/08:30am 13.5 WSW 3 6 1014.1 - 0.0 - - - - - - -
03/08:00am 13.1 W 2 4 1013.9 - 0.0 - - - - - - -
03/07:30am 12.4 WNW 4 6 1013.3 - 0.0 - - - - - - -
03/07:00am 11.5 WNW 4 6 1013.0 - 0.0 - - - - - - -
03/06:30am 11.2 WSW 4 5 1012.5 - 0.0 - - - - - - -
03/06:00am 11.0 W 5 7 1012.1 - 0.0 - - - - - - -
03/05:30am 11.3 W 5 7 1012.0 - 0.0 - - - - - - -
03/05:00am 11.5 WSW 5 7 1011.9 - 0.0 - - - - - - -
03/04:30am 12.8 WNW 6 11 1011.8 - 0.0 - - - - - - -
03/04:00am 13.0 WNW 5 8 1011.8 - 0.0 - - - - - - -
03/03:30am 12.1 WNW 5 7 1012.3 - 0.0 - - - - - - -

Other Formats:

Comma delimited format used in spreadsheet applications
http://www.bom.gov.au/fwo/IDT60701/IDT60701.94987.axf

JavaScript Object Notation format (JSON) in row-major order
http://www.bom.gov.au/fwo/IDT60701/IDT60701.94987.json